createdAt,value
2024-03-14T00:02:02.633Z,101470.22
2024-03-14T00:04:29.838Z,101477.78
2024-03-14T00:06:58.491Z,101469.84
2024-03-14T00:09:26.394Z,101474.75
2024-03-14T00:11:53.101Z,101471.91
2024-03-14T00:14:20.184Z,101478.44
2024-03-14T00:16:47.138Z,101471.75
2024-03-14T00:19:13.667Z,101482.50
2024-03-14T00:21:43.961Z,101436.72
2024-03-14T00:24:10.590Z,101477.94
2024-03-14T00:26:37.201Z,101477.06
2024-03-14T00:29:03.885Z,101477.63
2024-03-14T00:31:33.545Z,101472.91
2024-03-14T00:34:01.318Z,101478.63
2024-03-14T00:36:27.962Z,101467.84
2024-03-14T00:38:54.556Z,101472.91
2024-03-14T00:41:21.419Z,101464.13
2024-03-14T00:43:48.978Z,101471.22
2024-03-14T00:46:18.144Z,101461.28
2024-03-14T00:48:44.707Z,101460.13
2024-03-14T00:51:11.626Z,101454.38
2024-03-14T00:53:38.295Z,101448.31
2024-03-14T00:56:06.225Z,101457.09
2024-03-14T00:58:32.728Z,101446.13
2024-03-14T01:01:00.622Z,101451.72
2024-03-14T01:03:27.349Z,101450.34
2024-03-14T01:05:53.983Z,101446.13
2024-03-14T01:08:20.494Z,101445.44
2024-03-14T01:10:47.364Z,101439.91
2024-03-14T01:13:13.846Z,101438.03
2024-03-14T01:15:40.373Z,101443.56
2024-03-14T01:18:07.554Z,101437.53
2024-03-14T01:20:34.763Z,101444.94
2024-03-14T01:23:01.287Z,101442.47
2024-03-14T01:25:27.740Z,101414.34
2024-03-14T01:27:54.452Z,101449.16
2024-03-14T01:30:22.432Z,101438.56
2024-03-14T01:32:50.963Z,101437.69
2024-03-14T01:35:20.312Z,101438.09
2024-03-14T01:37:46.832Z,101440.94
2024-03-14T01:40:16.381Z,101395.97
2024-03-14T01:42:46.156Z,101429.47
2024-03-14T01:45:16.891Z,101433.31
2024-03-14T01:47:45.250Z,101410.63
2024-03-14T01:50:12.423Z,101410.47
2024-03-14T01:52:38.942Z,101428.94
2024-03-14T01:55:05.731Z,101426.06
2024-03-14T01:57:32.642Z,101422.56
2024-03-14T02:00:00.531Z,101419.84
2024-03-14T02:02:27.495Z,101406.25
2024-03-14T02:05:16.708Z,101418.38
2024-03-14T02:07:43.593Z,101415.69
2024-03-14T02:10:14.459Z,101420.63
2024-03-14T02:12:41.555Z,101402.56
2024-03-14T02:15:09.024Z,101415.72
2024-03-14T02:17:37.013Z,101419.75
2024-03-14T02:20:05.727Z,101386.16
2024-03-14T02:22:32.202Z,101417.06
2024-03-14T02:24:59.130Z,101410.53
2024-03-14T02:27:26.773Z,101386.16
2024-03-14T02:29:53.363Z,101414.75
2024-03-14T02:32:19.898Z,101399.25
2024-03-14T02:34:46.370Z,101406.00
2024-03-14T02:37:13.723Z,101398.94
2024-03-14T02:39:40.431Z,101392.22
2024-03-14T02:42:07.552Z,101399.31
2024-03-14T02:44:34.303Z,101400.31
2024-03-14T02:47:00.781Z,101395.25
2024-03-14T02:49:28.481Z,101399.13
2024-03-14T02:51:55.060Z,101391.22
2024-03-14T02:54:21.585Z,101395.59
2024-03-14T02:56:51.498Z,101383.34
2024-03-14T02:59:18.532Z,101388.88
2024-03-14T03:01:45.085Z,101358.44
2024-03-14T03:04:11.772Z,101386.19
2024-03-14T03:06:45.866Z,101391.91
2024-03-14T03:09:12.851Z,101387.03
2024-03-14T03:11:39.738Z,101382.16
2024-03-14T03:14:06.902Z,101377.59
2024-03-14T03:16:34.092Z,101377.06
2024-03-14T03:19:00.970Z,101381.81
2024-03-14T03:21:28.864Z,101371.69
2024-03-14T03:23:56.168Z,101360.94
2024-03-14T03:26:22.684Z,101381.63
2024-03-14T03:28:50.376Z,101373.22
2024-03-14T03:31:16.864Z,101372.03
2024-03-14T03:33:43.481Z,101360.59
2024-03-14T03:36:11.095Z,101370.84
2024-03-14T03:38:40.727Z,101378.72
2024-03-14T03:41:13.488Z,101371.34
2024-03-14T03:43:40.157Z,101361.78
2024-03-14T03:46:10.961Z,101364.31
2024-03-14T03:48:38.878Z,101321.06
2024-03-14T03:51:06.579Z,101339.22
2024-03-14T03:53:33.650Z,101328.47
2024-03-14T03:56:04.068Z,101350.66
2024-03-14T03:58:33.961Z,101350.84
2024-03-14T04:01:21.543Z,101351.53
2024-03-14T04:03:48.158Z,101347.13
2024-03-14T04:06:17.417Z,101347.47
2024-03-14T04:08:47.808Z,101346.78
2024-03-14T04:11:17.055Z,101351.31
2024-03-14T04:13:43.988Z,101350.38
2024-03-14T04:16:13.777Z,101350.16
2024-03-14T04:18:40.616Z,101348.16
2024-03-14T04:21:09.240Z,101341.22
2024-03-14T04:23:36.789Z,101341.06
2024-03-14T04:26:04.228Z,101343.44
2024-03-14T04:28:30.869Z,101349.53
2024-03-14T04:30:57.959Z,101305.75
2024-03-14T04:33:24.639Z,101335.88
2024-03-14T04:35:51.692Z,101349.31
2024-03-14T04:38:19.672Z,101338.75
2024-03-14T04:40:46.249Z,101340.06
2024-03-14T04:43:14.518Z,101338.72
2024-03-14T04:45:42.112Z,101343.59
2024-03-14T04:48:09.020Z,101347.47
2024-03-14T04:50:35.956Z,101342.56
2024-03-14T04:53:02.695Z,101348.13
2024-03-14T04:55:30.184Z,101347.44
2024-03-14T04:57:56.631Z,101339.91
2024-03-14T05:00:23.836Z,101346.63
2024-03-14T05:02:52.615Z,101349.31
2024-03-14T05:05:22.712Z,101338.69
2024-03-14T05:07:50.156Z,101353.81
2024-03-14T05:10:21.076Z,101346.03
2024-03-14T05:12:48.340Z,101351.06
2024-03-14T05:15:16.241Z,101345.03
2024-03-14T05:17:43.628Z,101348.25
2024-03-14T05:20:12.064Z,101359.66
2024-03-14T05:22:39.784Z,101337.50
2024-03-14T05:25:12.625Z,101358.63
2024-03-14T05:27:39.684Z,101358.94
2024-03-14T05:30:06.897Z,101353.41
2024-03-14T05:32:33.886Z,101330.53
2024-03-14T05:35:01.822Z,101362.84
2024-03-14T05:37:28.983Z,101351.59
2024-03-14T05:39:56.268Z,101367.53
2024-03-14T05:42:23.325Z,101360.78
2024-03-14T05:44:50.592Z,101359.28
2024-03-14T05:47:17.263Z,101358.97
2024-03-14T05:49:44.729Z,101366.16
2024-03-14T05:52:14.218Z,101353.72
2024-03-14T05:54:41.085Z,101357.88
2024-03-14T05:57:07.925Z,101357.88
2024-03-14T05:59:36.364Z,101347.66
2024-03-14T06:02:03.495Z,101366.16
2024-03-14T06:04:31.405Z,101358.78
2024-03-14T06:06:57.879Z,101358.44
2024-03-14T06:09:33.816Z,101359.88
2024-03-14T06:12:00.999Z,101356.06
2024-03-14T06:14:27.692Z,101357.03
2024-03-14T06:16:54.197Z,101361.78
2024-03-14T06:19:23.318Z,101352.03
2024-03-14T06:21:51.378Z,101331.22
2024-03-14T06:24:18.186Z,101350.38
2024-03-14T06:26:46.317Z,101357.13
2024-03-14T06:29:12.867Z,101360.97
2024-03-14T06:31:39.938Z,101361.50
2024-03-14T06:34:06.578Z,101357.50
2024-03-14T06:36:33.149Z,101361.19
2024-03-14T06:38:59.798Z,101363.53
2024-03-14T06:41:26.473Z,101362.03
2024-03-14T06:43:52.929Z,101349.44
2024-03-14T06:46:21.383Z,101355.50
2024-03-14T06:48:47.895Z,101356.19
2024-03-14T06:51:14.483Z,101361.56
2024-03-14T06:53:41.136Z,101359.22
2024-03-14T06:56:09.993Z,101360.91
2024-03-14T06:58:36.554Z,101360.91
2024-03-14T07:01:03.072Z,101358.75
2024-03-14T07:03:29.782Z,101347.78
2024-03-14T07:05:59.056Z,101360.25
2024-03-14T07:08:27.806Z,101359.91
2024-03-14T07:10:54.420Z,101350.66
2024-03-14T07:13:20.888Z,101347.16
2024-03-14T07:15:49.170Z,101345.13
2024-03-14T07:18:17.679Z,101356.25
2024-03-14T07:20:46.995Z,101348.81
2024-03-14T07:23:14.882Z,101355.56
2024-03-14T07:25:42.998Z,101354.53
2024-03-14T07:28:10.761Z,101353.97
2024-03-14T07:30:37.552Z,101352.81
2024-03-14T07:33:04.539Z,101352.78
2024-03-14T07:35:31.131Z,101349.81
2024-03-14T07:37:57.773Z,101360.63
2024-03-14T07:40:33.820Z,101356.75
2024-03-14T07:43:00.850Z,101362.81
2024-03-14T07:45:27.744Z,101350.28
2024-03-14T07:47:54.806Z,101348.28
2024-03-14T07:50:24.013Z,101361.94
2024-03-14T07:52:50.796Z,101344.53
2024-03-14T07:55:18.324Z,101366.47
2024-03-14T07:57:45.119Z,101366.56
2024-03-14T08:00:16.736Z,101358.53
2024-03-14T08:02:43.756Z,101319.53
2024-03-14T08:05:10.354Z,101359.41
2024-03-14T08:07:39.854Z,101332.31
2024-03-14T08:10:09.417Z,101357.59
2024-03-14T08:12:36.134Z,101352.03
2024-03-14T08:15:18.373Z,101359.81
2024-03-14T08:17:48.158Z,101355.22
2024-03-14T08:20:17.001Z,101360.88
2024-03-14T08:22:44.111Z,101358.91
2024-03-14T08:25:20.194Z,101359.94
2024-03-14T08:27:50.220Z,101366.91
2024-03-14T08:30:19.181Z,101354.16
2024-03-14T08:32:45.814Z,101367.25
2024-03-14T08:35:15.672Z,101367.59
2024-03-14T08:37:45.631Z,101362.94
2024-03-14T08:40:13.335Z,101351.88
2024-03-14T08:42:46.185Z,101372.72
2024-03-14T08:45:15.778Z,101334.84
2024-03-14T08:47:43.827Z,101361.97
2024-03-14T08:50:18.055Z,101360.56
2024-03-14T08:52:45.990Z,101368.13
2024-03-14T08:55:24.958Z,101363.19
2024-03-14T08:57:52.388Z,101360.56
2024-03-14T09:00:22.886Z,101359.38
2024-03-14T09:02:50.561Z,101361.59
2024-03-14T09:05:17.728Z,101359.25
2024-03-14T09:07:46.968Z,101354.00
2024-03-14T09:10:26.781Z,101356.06
2024-03-14T09:12:54.118Z,101355.75
2024-03-14T09:15:21.809Z,101344.78
2024-03-14T09:17:49.318Z,101357.88
2024-03-14T09:20:21.120Z,101331.59
2024-03-14T09:22:55.083Z,101339.03
2024-03-14T09:25:23.387Z,101355.13
2024-03-14T09:27:50.123Z,101339.44
2024-03-14T09:30:18.643Z,101319.56
2024-03-14T09:32:47.192Z,101336.59
2024-03-14T09:35:27.754Z,101331.09
2024-03-14T09:37:55.971Z,101348.03
2024-03-14T09:40:22.955Z,101347.28
2024-03-14T09:43:00.817Z,101344.59
2024-03-14T09:45:30.185Z,101350.72
2024-03-14T09:47:58.567Z,101326.53
2024-03-14T09:50:27.373Z,101340.06
2024-03-14T09:52:56.184Z,101345.72
2024-03-14T09:55:29.893Z,101341.38
2024-03-14T09:57:57.245Z,101351.31
2024-03-14T10:00:27.046Z,101340.66
2024-03-14T10:02:58.158Z,101335.03
2024-03-14T10:05:25.590Z,101305.16
2024-03-14T10:07:52.346Z,101333.97
2024-03-14T10:10:20.531Z,101318.97
2024-03-14T10:12:55.440Z,101326.50
2024-03-14T10:15:23.009Z,101325.88
2024-03-14T10:17:50.064Z,101315.97
2024-03-14T10:20:18.756Z,101318.69
2024-03-14T10:22:52.606Z,101311.66
2024-03-14T10:25:25.413Z,101280.78
2024-03-14T10:28:06.156Z,101315.63
2024-03-14T10:30:38.438Z,101293.22
2024-03-14T10:33:09.382Z,101287.75
2024-03-14T10:35:37.630Z,101310.28
2024-03-14T10:38:12.325Z,101302.03
2024-03-14T10:40:43.108Z,101305.44
2024-03-14T10:43:11.914Z,101304.78
2024-03-14T10:45:39.194Z,101302.72
2024-03-14T10:48:09.062Z,101297.44
2024-03-14T10:50:37.975Z,101298.88
2024-03-14T10:53:06.489Z,101279.97
2024-03-14T10:55:35.060Z,101304.28
2024-03-14T10:58:05.902Z,101297.06
2024-03-14T11:00:35.705Z,101296.19
2024-03-14T11:03:04.621Z,101307.84
2024-03-14T11:05:32.106Z,101299.72
2024-03-14T11:08:01.623Z,101294.72
2024-03-14T11:10:30.304Z,101301.44
2024-03-14T11:13:02.441Z,101299.56
2024-03-14T11:15:30.142Z,101289.72
2024-03-14T11:18:00.716Z,101294.94
2024-03-14T11:20:33.896Z,101289.53
2024-03-14T11:23:04.458Z,101305.84
2024-03-14T11:25:33.573Z,101290.97
2024-03-14T11:28:02.255Z,101285.34
2024-03-14T11:30:28.896Z,101283.31
2024-03-14T11:32:56.604Z,101275.31
2024-03-14T11:35:29.696Z,101283.84
2024-03-14T11:37:56.177Z,101277.28
2024-03-14T11:40:22.759Z,101285.38
2024-03-14T11:42:50.482Z,101274.84
2024-03-14T11:45:17.870Z,101278.19
2024-03-14T11:47:44.796Z,101276.78
2024-03-14T11:50:14.332Z,101262.22
2024-03-14T11:52:41.558Z,101264.56
2024-03-14T11:55:12.799Z,101250.78
2024-03-14T11:57:44.846Z,101267.56
2024-03-14T12:00:12.062Z,101261.53
2024-03-14T12:02:39.853Z,101259.09
2024-03-14T12:05:20.940Z,101261.91
2024-03-14T12:07:47.732Z,101256.25
2024-03-14T12:10:16.993Z,101256.13
2024-03-14T12:12:43.677Z,101258.56
2024-03-14T12:15:11.751Z,101254.81
2024-03-14T12:17:38.421Z,101247.09
2024-03-14T12:20:12.010Z,101245.22
2024-03-14T12:22:44.838Z,101242.63
2024-03-14T12:25:17.152Z,101240.94
2024-03-14T12:27:44.888Z,101240.38
2024-03-14T12:30:11.880Z,101234.38
2024-03-14T12:32:39.197Z,101236.72
2024-03-14T12:35:14.280Z,101228.25
2024-03-14T12:37:41.629Z,101231.59
2024-03-14T12:40:15.181Z,101227.44
2024-03-14T12:42:43.509Z,101220.28
2024-03-14T12:45:10.807Z,101210.06
2024-03-14T12:47:37.589Z,101199.22
2024-03-14T12:50:04.505Z,101172.63
2024-03-14T12:52:31.076Z,101174.75
2024-03-14T12:54:57.631Z,101206.72
2024-03-14T12:57:25.269Z,101196.19
2024-03-14T12:59:54.352Z,101176.41
2024-03-14T13:02:21.286Z,101178.31
2024-03-14T13:04:48.196Z,101170.66
2024-03-14T13:07:19.914Z,101175.03
2024-03-14T13:10:11.149Z,101164.44
2024-03-14T13:12:39.642Z,101163.69
2024-03-14T13:15:13.146Z,101163.06
2024-03-14T13:17:40.318Z,101168.97
2024-03-14T13:20:16.313Z,101167.31
2024-03-14T13:22:44.212Z,101159.53
2024-03-14T13:25:12.741Z,101147.06
2024-03-14T13:27:40.190Z,101148.75
2024-03-14T13:30:09.697Z,101154.47
2024-03-14T13:32:38.597Z,101147.97
2024-03-14T13:35:11.247Z,101146.81
2024-03-14T13:37:37.932Z,101149.19
2024-03-14T13:42:41.501Z,101147.59
2024-03-14T13:45:08.247Z,101153.59
2024-03-14T13:47:38.697Z,101137.28
2024-03-14T13:50:10.848Z,101143.88
2024-03-14T13:52:42.129Z,101147.75
2024-03-14T13:55:25.425Z,101145.50
2024-03-14T13:57:53.203Z,101143.19
2024-03-14T14:00:26.406Z,101134.72
2024-03-14T14:02:59.862Z,101131.25
2024-03-14T14:05:30.323Z,101128.69
2024-03-14T14:08:01.288Z,101118.47
2024-03-14T14:10:28.680Z,101109.28
2024-03-14T14:12:55.852Z,101103.69
2024-03-14T14:15:23.243Z,101111.13
2024-03-14T14:17:49.972Z,101094.66
2024-03-14T14:20:18.263Z,101078.53
2024-03-14T14:22:46.412Z,101121.25
2024-03-14T14:25:15.979Z,101122.63
2024-03-14T14:27:46.171Z,101117.84
2024-03-14T14:30:22.477Z,101103.56
2024-03-14T14:32:50.324Z,101094.47
2024-03-14T14:35:23.165Z,101117.41
2024-03-14T14:37:50.760Z,101108.03
2024-03-14T14:40:17.387Z,101103.91
2024-03-14T14:42:44.355Z,101074.88
2024-03-14T14:45:11.776Z,101089.66
2024-03-14T14:47:41.578Z,101096.09
2024-03-14T14:50:09.832Z,101082.94
2024-03-14T14:52:38.437Z,101081.16
2024-03-14T14:55:12.683Z,101082.47
2024-03-14T14:57:40.842Z,101077.50
2024-03-14T15:00:08.506Z,101079.38
2024-03-14T15:02:35.734Z,101068.72
2024-03-14T15:05:02.210Z,101077.59
2024-03-14T15:07:28.740Z,101079.13
2024-03-14T15:09:55.432Z,101069.00
2024-03-14T15:12:21.983Z,101068.22
2024-03-14T15:14:49.589Z,101058.16
2024-03-14T15:17:17.729Z,101024.50
2024-03-14T15:19:45.570Z,101059.44
2024-03-14T15:22:12.085Z,101057.00
2024-03-14T15:24:39.016Z,101050.38
2024-03-14T15:27:09.375Z,101062.69
2024-03-14T15:29:39.999Z,101043.19
2024-03-14T15:32:07.626Z,101052.31
2024-03-14T15:34:34.820Z,101010.47
2024-03-14T15:37:01.486Z,101045.63
2024-03-14T15:39:31.156Z,101052.16
2024-03-14T15:42:00.594Z,101039.13
2024-03-14T15:44:32.752Z,101040.28
2024-03-14T15:46:59.409Z,101042.75
2024-03-14T15:49:27.045Z,101033.28
2024-03-14T15:51:54.313Z,101038.59
2024-03-14T15:54:20.858Z,101030.41
2024-03-14T15:56:47.369Z,101012.19
2024-03-14T15:59:13.925Z,101032.66
2024-03-14T16:01:41.637Z,101029.88
2024-03-14T16:04:08.166Z,101029.22
2024-03-14T16:06:38.577Z,101023.81
2024-03-14T16:09:05.631Z,101023.81
2024-03-14T16:11:32.383Z,100993.06
2024-03-14T16:13:59.105Z,101009.50
2024-03-14T16:16:26.681Z,101011.19
2024-03-14T16:18:53.530Z,101012.84
2024-03-14T16:21:20.347Z,101011.53
2024-03-14T16:23:48.031Z,101008.47
2024-03-14T16:26:15.331Z,101008.47
2024-03-14T16:28:44.614Z,101003.41
2024-03-14T16:31:11.790Z,100998.88
2024-03-14T16:33:38.820Z,100971.38
2024-03-14T16:36:05.793Z,100990.53
2024-03-14T16:38:34.225Z,100995.31
2024-03-14T16:41:04.119Z,100968.44
2024-03-14T16:43:32.898Z,100998.50
2024-03-14T16:46:00.910Z,100955.56
2024-03-14T16:48:28.122Z,100966.63
2024-03-14T16:50:54.765Z,100992.50
2024-03-14T16:53:21.691Z,100983.50
2024-03-14T16:55:49.968Z,100988.53
2024-03-14T16:58:19.205Z,100982.72
2024-03-14T17:00:45.939Z,100981.66
2024-03-14T17:03:18.075Z,100978.31
2024-03-14T17:05:44.604Z,100974.78
2024-03-14T17:08:11.156Z,100988.16
2024-03-14T17:10:37.616Z,100963.50
2024-03-14T17:13:06.291Z,100955.59
2024-03-14T17:15:35.503Z,100983.38
2024-03-14T17:18:02.300Z,100979.38
2024-03-14T17:20:28.807Z,100975.19
2024-03-14T17:22:55.245Z,100975.63
2024-03-14T17:25:23.942Z,100981.66
2024-03-14T17:27:55.372Z,100974.78
2024-03-14T17:30:24.038Z,100981.66
2024-03-14T17:32:52.254Z,100962.69
2024-03-14T17:35:19.722Z,100976.44
2024-03-14T17:37:46.291Z,100978.28
2024-03-14T17:40:13.217Z,100963.47
2024-03-14T17:42:44.570Z,100983.06
2024-03-14T17:45:19.284Z,100977.84
2024-03-14T17:47:47.827Z,100966.34
2024-03-14T17:50:15.663Z,100984.69
2024-03-14T17:52:44.308Z,100982.59
2024-03-14T17:55:11.679Z,100981.31
2024-03-14T17:57:46.072Z,100985.84
2024-03-14T18:00:16.670Z,100983.94
2024-03-14T18:02:44.239Z,100990.06
2024-03-14T18:05:11.450Z,100990.84
2024-03-14T18:07:39.010Z,100993.09
2024-03-14T18:10:09.133Z,100960.72
2024-03-14T18:12:39.131Z,100986.50
2024-03-14T18:15:10.051Z,100997.31
2024-03-14T18:17:38.192Z,100977.75
2024-03-14T18:20:14.948Z,100968.38
2024-03-14T18:22:50.029Z,100988.63
2024-03-14T18:25:20.404Z,100982.03
2024-03-14T18:27:50.101Z,100998.47
2024-03-14T18:30:20.180Z,100972.56
2024-03-14T18:32:48.289Z,101001.84
2024-03-14T18:35:17.847Z,100992.53
2024-03-14T18:37:48.062Z,100987.34
2024-03-14T18:40:19.751Z,100985.84
2024-03-14T18:42:48.379Z,100996.81
2024-03-14T18:45:16.536Z,100991.41
2024-03-14T18:47:43.503Z,100983.38
2024-03-14T18:50:12.926Z,100989.19
2024-03-14T18:52:40.902Z,100984.66
2024-03-14T18:55:07.949Z,100990.94
2024-03-14T18:57:35.158Z,100950.16
2024-03-14T19:00:02.300Z,100996.75
2024-03-14T19:02:28.999Z,100993.97
2024-03-14T19:04:56.827Z,100971.00
2024-03-14T19:07:23.980Z,101002.03
2024-03-14T19:09:50.662Z,101000.78
2024-03-14T19:12:17.356Z,100992.53
2024-03-14T19:14:45.031Z,100990.31
2024-03-14T19:17:19.229Z,100995.47
2024-03-14T19:19:49.195Z,100965.00
2024-03-14T19:22:16.665Z,100989.28
2024-03-14T19:24:44.739Z,100986.94
2024-03-14T19:27:11.683Z,100985.34
2024-03-14T19:29:38.313Z,100981.63
2024-03-14T19:32:05.122Z,100986.66
2024-03-14T19:34:34.046Z,100978.91
2024-03-14T19:37:03.925Z,100980.09
2024-03-14T19:39:31.696Z,100975.22
2024-03-14T19:41:58.535Z,100974.03
2024-03-14T19:44:24.994Z,100977.25
2024-03-14T19:46:52.232Z,100975.03
2024-03-14T19:49:19.277Z,100971.22
2024-03-14T19:51:46.964Z,100964.09
2024-03-14T19:54:13.641Z,100970.00
2024-03-14T19:56:40.214Z,100961.25
2024-03-14T19:59:07.263Z,100963.88
2024-03-14T20:01:34.089Z,100959.72
2024-03-14T20:04:00.999Z,100914.66
2024-03-14T20:06:27.747Z,100949.03
2024-03-14T20:08:56.062Z,100944.75
2024-03-14T20:11:23.709Z,100946.16
2024-03-14T20:13:51.078Z,100897.59
2024-03-14T20:16:21.163Z,100943.72
2024-03-14T20:18:48.491Z,100936.56
2024-03-14T20:21:15.674Z,100929.94
2024-03-14T20:23:44.332Z,100927.38
2024-03-14T20:26:12.936Z,100927.97
2024-03-14T20:28:40.321Z,100915.25
2024-03-14T20:31:07.997Z,100920.50
2024-03-14T20:33:35.066Z,100913.56
2024-03-14T20:36:01.845Z,100908.50
2024-03-14T20:38:30.026Z,100876.31
2024-03-14T20:40:57.700Z,100904.78
2024-03-14T20:43:24.727Z,100872.09
2024-03-14T20:45:51.486Z,100891.75
2024-03-14T20:48:18.677Z,100891.63
2024-03-14T20:50:45.685Z,100886.63
2024-03-14T20:53:13.126Z,100880.59
2024-03-14T20:55:55.948Z,100857.59
2024-03-14T20:58:27.211Z,100863.13
2024-03-14T21:00:53.795Z,100872.84
2024-03-14T21:03:20.986Z,100868.72
2024-03-14T21:05:48.930Z,100864.44
2024-03-14T21:08:18.887Z,100870.75
2024-03-14T21:10:45.755Z,100846.59
2024-03-14T21:13:12.800Z,100867.59
2024-03-14T21:15:39.667Z,100831.66
2024-03-14T21:18:14.710Z,100860.66
2024-03-14T21:20:41.284Z,100858.34
2024-03-14T21:23:10.496Z,100842.38
2024-03-14T21:25:37.080Z,100869.16
2024-03-14T21:28:03.692Z,100858.84
2024-03-14T21:30:30.408Z,100832.50
2024-03-14T21:32:57.130Z,100868.09
2024-03-14T21:35:23.967Z,100865.66
2024-03-14T21:37:51.818Z,100815.72
2024-03-14T21:40:22.065Z,100855.63
2024-03-14T21:42:50.325Z,100857.44
2024-03-14T21:45:16.906Z,100851.13
2024-03-14T21:47:44.824Z,100855.69
2024-03-14T21:50:12.572Z,100864.25
2024-03-14T21:52:42.190Z,100852.53
2024-03-14T21:55:15.756Z,100854.50
2024-03-14T21:57:45.946Z,100849.81
2024-03-14T22:00:18.821Z,100833.84
2024-03-14T22:02:48.613Z,100841.72
2024-03-14T22:05:18.392Z,100840.81
2024-03-14T22:07:45.874Z,100841.53
2024-03-14T22:10:12.733Z,100839.25
2024-03-14T22:12:39.430Z,100834.66
2024-03-14T22:15:08.317Z,100805.88
2024-03-14T22:17:36.257Z,100837.63
2024-03-14T22:20:08.569Z,100829.06
2024-03-14T22:22:35.298Z,100819.00
2024-03-14T22:25:01.774Z,100821.00
2024-03-14T22:27:28.892Z,100787.19
2024-03-14T22:29:56.588Z,100833.06
2024-03-14T22:32:23.140Z,100809.81
2024-03-14T22:34:49.638Z,100836.06
2024-03-14T22:37:16.695Z,100829.84
2024-03-14T22:39:43.696Z,100835.41
2024-03-14T22:42:13.305Z,100831.91
2024-03-14T22:44:39.971Z,100831.13
2024-03-14T22:47:08.174Z,100816.06
2024-03-14T22:49:34.830Z,100822.59
2024-03-14T22:52:01.302Z,100824.47
2024-03-14T22:54:28.128Z,100790.28
2024-03-14T22:56:54.631Z,100828.00
2024-03-14T22:59:21.045Z,100832.84
2024-03-14T23:01:48.597Z,100821.44
2024-03-14T23:04:16.316Z,100824.63
2024-03-14T23:06:43.247Z,100800.19
2024-03-14T23:09:10.069Z,100824.56
2024-03-14T23:11:36.757Z,100822.56
2024-03-14T23:14:03.523Z,100825.97
2024-03-14T23:16:32.839Z,100825.31
2024-03-14T23:19:03.173Z,100825.88
2024-03-14T23:21:31.173Z,100818.44
2024-03-14T23:23:58.571Z,100808.06
2024-03-14T23:26:33.294Z,100817.25
2024-03-14T23:29:03.095Z,100817.25
2024-03-14T23:31:30.522Z,100820.16
2024-03-14T23:33:57.358Z,100810.59
2024-03-14T23:36:24.049Z,100808.50
2024-03-14T23:38:51.353Z,100805.19
2024-03-14T23:41:18.136Z,100782.63
2024-03-14T23:43:46.507Z,100802.69
2024-03-14T23:46:13.533Z,100806.66
2024-03-14T23:48:41.029Z,100802.28
2024-03-14T23:51:07.823Z,100806.41
2024-03-14T23:53:34.649Z,100769.53
2024-03-14T23:56:01.306Z,100795.63
2024-03-14T23:58:27.855Z,100785.22
